sensor_id;sensor_type;location;lat;lon;timestamp;P1;durP1;ratioP1;P2;durP2;ratioP2
21615;SDS011;10970;48.714;9.584;2022-08-04T00:01:55;2.57;;;2.30;;
21615;SDS011;10970;48.714;9.584;2022-08-04T00:04:14;2.40;;;2.20;;
21615;SDS011;10970;48.714;9.584;2022-08-04T00:09:18;3.90;;;2.70;;
21615;SDS011;10970;48.714;9.584;2022-08-04T00:11:59;2.97;;;2.73;;
21615;SDS011;10970;48.714;9.584;2022-08-04T00:14:26;2.53;;;2.23;;
21615;SDS011;10970;48.714;9.584;2022-08-04T00:16:56;2.27;;;1.90;;
21615;SDS011;10970;48.714;9.584;2022-08-04T00:22:02;3.03;;;2.77;;
21615;SDS011;10970;48.714;9.584;2022-08-04T00:24:29;4.63;;;2.30;;
21615;SDS011;10970;48.714;9.584;2022-08-04T00:26:55;2.93;;;2.60;;
21615;SDS011;10970;48.714;9.584;2022-08-04T00:29:22;2.80;;;2.30;;
21615;SDS011;10970;48.714;9.584;2022-08-04T00:31:48;2.50;;;2.30;;
21615;SDS011;10970;48.714;9.584;2022-08-04T00:34:14;4.53;;;2.83;;
21615;SDS011;10970;48.714;9.584;2022-08-04T00:36:44;4.00;;;2.60;;
21615;SDS011;10970;48.714;9.584;2022-08-04T00:39:10;4.13;;;3.43;;
21615;SDS011;10970;48.714;9.584;2022-08-04T00:41:47;1.97;;;1.83;;
21615;SDS011;10970;48.714;9.584;2022-08-04T00:47:39;3.60;;;2.33;;
21615;SDS011;10970;48.714;9.584;2022-08-04T01:01:32;1.80;;;1.70;;
21615;SDS011;10970;48.714;9.584;2022-08-04T01:04:28;2.50;;;1.80;;
21615;SDS011;10970;48.714;9.584;2022-08-04T01:12:43;2.67;;;2.13;;
21615;SDS011;10970;48.714;9.584;2022-08-04T01:18:12;1.90;;;1.80;;
21615;SDS011;10970;48.714;9.584;2022-08-04T01:20:56;3.97;;;2.93;;
21615;SDS011;10970;48.714;9.584;2022-08-04T01:23:49;2.10;;;2.00;;
21615;SDS011;10970;48.714;9.584;2022-08-04T01:34:20;1.73;;;1.63;;
21615;SDS011;10970;48.714;9.584;2022-08-04T01:36:57;2.00;;;1.90;;
21615;SDS011;10970;48.714;9.584;2022-08-04T01:39:33;2.27;;;2.17;;
21615;SDS011;10970;48.714;9.584;2022-08-04T01:42:06;2.20;;;1.63;;
21615;SDS011;10970;48.714;9.584;2022-08-04T01:44:34;2.60;;;2.40;;
21615;SDS011;10970;48.714;9.584;2022-08-04T01:47:02;2.50;;;2.20;;
21615;SDS011;10970;48.714;9.584;2022-08-04T01:49:29;2.30;;;2.07;;
21615;SDS011;10970;48.714;9.584;2022-08-04T01:51:56;3.00;;;2.53;;
21615;SDS011;10970;48.714;9.584;2022-08-04T01:54:24;3.20;;;2.17;;
21615;SDS011;10970;48.714;9.584;2022-08-04T01:56:51;2.77;;;1.93;;
21615;SDS011;10970;48.714;9.584;2022-08-04T01:59:19;2.00;;;1.90;;
21615;SDS011;10970;48.714;9.584;2022-08-04T02:01:46;2.30;;;2.00;;
21615;SDS011;10970;48.714;9.584;2022-08-04T02:04:13;2.53;;;2.33;;
21615;SDS011;10970;48.714;9.584;2022-08-04T02:06:48;2.53;;;2.33;;
21615;SDS011;10970;48.714;9.584;2022-08-04T02:14:44;4.27;;;2.57;;
21615;SDS011;10970;48.714;9.584;2022-08-04T02:17:38;2.20;;;2.10;;
21615;SDS011;10970;48.714;9.584;2022-08-04T02:20:08;3.00;;;2.70;;
21615;SDS011;10970;48.714;9.584;2022-08-04T02:22:48;6.53;;;2.53;;
21615;SDS011;10970;48.714;9.584;2022-08-04T02:25:24;3.83;;;2.30;;
21615;SDS011;10970;48.714;9.584;2022-08-04T02:30:33;3.07;;;2.77;;
21615;SDS011;10970;48.714;9.584;2022-08-04T02:33:09;4.47;;;3.03;;
21615;SDS011;10970;48.714;9.584;2022-08-04T02:35:40;5.03;;;2.97;;
21615;SDS011;10970;48.714;9.584;2022-08-04T02:40:40;5.00;;;2.90;;
21615;SDS011;10970;48.714;9.584;2022-08-04T02:43:07;2.27;;;2.07;;
21615;SDS011;10970;48.714;9.584;2022-08-04T02:45:35;2.30;;;2.10;;
21615;SDS011;10970;48.714;9.584;2022-08-04T02:48:02;3.33;;;3.03;;
21615;SDS011;10970;48.714;9.584;2022-08-04T02:50:29;3.83;;;2.33;;
21615;SDS011;10970;48.714;9.584;2022-08-04T02:52:59;4.03;;;2.50;;
21615;SDS011;10970;48.714;9.584;2022-08-04T02:55:28;3.30;;;2.70;;
21615;SDS011;10970;48.714;9.584;2022-08-04T02:57:55;3.33;;;3.07;;
21615;SDS011;10970;48.714;9.584;2022-08-04T03:00:23;5.17;;;2.93;;
21615;SDS011;10970;48.714;9.584;2022-08-04T03:05:24;3.40;;;3.03;;
21615;SDS011;10970;48.714;9.584;2022-08-04T03:30:25;2.40;;;2.20;;
21615;SDS011;10970;48.714;9.584;2022-08-04T03:33:36;2.90;;;2.70;;
21615;SDS011;10970;48.714;9.584;2022-08-04T03:36:31;3.40;;;3.13;;
21615;SDS011;10970;48.714;9.584;2022-08-04T03:47:38;2.90;;;2.70;;
21615;SDS011;10970;48.714;9.584;2022-08-04T04:09:21;2.57;;;2.40;;
21615;SDS011;10970;48.714;9.584;2022-08-04T04:25:54;3.93;;;2.93;;
21615;SDS011;10970;48.714;9.584;2022-08-04T04:37:13;3.30;;;3.00;;
21615;SDS011;10970;48.714;9.584;2022-08-04T04:52:54;2.80;;;2.60;;
21615;SDS011;10970;48.714;9.584;2022-08-04T04:55:28;3.43;;;2.53;;
21615;SDS011;10970;48.714;9.584;2022-08-04T04:57:59;2.40;;;2.20;;
21615;SDS011;10970;48.714;9.584;2022-08-04T05:14:26;2.80;;;2.20;;
21615;SDS011;10970;48.714;9.584;2022-08-04T05:22:12;2.27;;;2.07;;
21615;SDS011;10970;48.714;9.584;2022-08-04T05:24:46;4.50;;;2.90;;
21615;SDS011;10970;48.714;9.584;2022-08-04T05:28:11;5.20;;;3.00;;
21615;SDS011;10970;48.714;9.584;2022-08-04T05:30:46;4.30;;;2.53;;
21615;SDS011;10970;48.714;9.584;2022-08-04T05:33:31;3.50;;;3.20;;
21615;SDS011;10970;48.714;9.584;2022-08-04T05:36:21;3.43;;;2.80;;
21615;SDS011;10970;48.714;9.584;2022-08-04T05:38:52;5.33;;;3.37;;
21615;SDS011;10970;48.714;9.584;2022-08-04T05:41:23;3.30;;;2.30;;
21615;SDS011;10970;48.714;9.584;2022-08-04T05:43:51;2.00;;;1.90;;
21615;SDS011;10970;48.714;9.584;2022-08-04T05:46:16;2.20;;;2.00;;
21615;SDS011;10970;48.714;9.584;2022-08-04T05:48:44;2.97;;;2.40;;
21615;SDS011;10970;48.714;9.584;2022-08-04T05:51:10;2.97;;;2.77;;
21615;SDS011;10970;48.714;9.584;2022-08-04T05:53:38;2.53;;;2.33;;
21615;SDS011;10970;48.714;9.584;2022-08-04T05:56:08;6.10;;;2.50;;
21615;SDS011;10970;48.714;9.584;2022-08-04T05:58:36;2.73;;;2.17;;
21615;SDS011;10970;48.714;9.584;2022-08-04T06:01:02;2.47;;;2.27;;
21615;SDS011;10970;48.714;9.584;2022-08-04T06:03:30;3.10;;;2.90;;
21615;SDS011;10970;48.714;9.584;2022-08-04T06:05:58;2.80;;;2.60;;
21615;SDS011;10970;48.714;9.584;2022-08-04T06:08:24;2.80;;;2.53;;
21615;SDS011;10970;48.714;9.584;2022-08-04T06:10:51;2.20;;;2.00;;
21615;SDS011;10970;48.714;9.584;2022-08-04T06:13:24;2.47;;;2.30;;
21615;SDS011;10970;48.714;9.584;2022-08-04T06:15:53;2.20;;;2.00;;
21615;SDS011;10970;48.714;9.584;2022-08-04T06:18:21;2.30;;;2.10;;
21615;SDS011;10970;48.714;9.584;2022-08-04T06:20:48;1.90;;;1.80;;
21615;SDS011;10970;48.714;9.584;2022-08-04T06:23:17;2.47;;;2.27;;
21615;SDS011;10970;48.714;9.584;2022-08-04T06:25:51;2.30;;;2.10;;
21615;SDS011;10970;48.714;9.584;2022-08-04T06:28:21;3.83;;;3.53;;
21615;SDS011;10970;48.714;9.584;2022-08-04T06:30:48;3.00;;;2.30;;
21615;SDS011;10970;48.714;9.584;2022-08-04T06:33:15;1.83;;;1.73;;
21615;SDS011;10970;48.714;9.584;2022-08-04T06:36:08;2.37;;;2.17;;
21615;SDS011;10970;48.714;9.584;2022-08-04T06:38:36;3.17;;;2.20;;
21615;SDS011;10970;48.714;9.584;2022-08-04T06:41:02;2.80;;;2.10;;
21615;SDS011;10970;48.714;9.584;2022-08-04T06:43:33;4.50;;;2.37;;
21615;SDS011;10970;48.714;9.584;2022-08-04T06:46:00;3.10;;;2.10;;
21615;SDS011;10970;48.714;9.584;2022-08-04T06:48:28;3.20;;;2.03;;
21615;SDS011;10970;48.714;9.584;2022-08-04T06:50:56;2.30;;;2.10;;
21615;SDS011;10970;48.714;9.584;2022-08-04T06:53:24;3.40;;;1.90;;
21615;SDS011;10970;48.714;9.584;2022-08-04T06:55:50;3.10;;;2.50;;
21615;SDS011;10970;48.714;9.584;2022-08-04T06:58:17;2.40;;;2.03;;
21615;SDS011;10970;48.714;9.584;2022-08-04T07:00:45;5.10;;;3.40;;
21615;SDS011;10970;48.714;9.584;2022-08-04T07:03:12;2.30;;;2.03;;
21615;SDS011;10970;48.714;9.584;2022-08-04T07:05:40;2.10;;;1.83;;
21615;SDS011;10970;48.714;9.584;2022-08-04T07:08:06;3.03;;;2.00;;
21615;SDS011;10970;48.714;9.584;2022-08-04T07:10:35;5.43;;;1.83;;
21615;SDS011;10970;48.714;9.584;2022-08-04T07:13:01;3.57;;;2.20;;
21615;SDS011;10970;48.714;9.584;2022-08-04T07:15:28;6.23;;;1.90;;
21615;SDS011;10970;48.714;9.584;2022-08-04T07:17:54;3.07;;;2.50;;
21615;SDS011;10970;48.714;9.584;2022-08-04T07:20:28;2.50;;;2.30;;
21615;SDS011;10970;48.714;9.584;2022-08-04T07:22:54;3.93;;;2.60;;
21615;SDS011;10970;48.714;9.584;2022-08-04T07:25:21;2.90;;;2.60;;
21615;SDS011;10970;48.714;9.584;2022-08-04T07:27:48;1.93;;;1.73;;
21615;SDS011;10970;48.714;9.584;2022-08-04T07:30:13;4.70;;;2.27;;
21615;SDS011;10970;48.714;9.584;2022-08-04T07:32:41;3.40;;;2.20;;
21615;SDS011;10970;48.714;9.584;2022-08-04T07:35:07;2.97;;;2.20;;
21615;SDS011;10970;48.714;9.584;2022-08-04T07:37:34;3.30;;;2.00;;
21615;SDS011;10970;48.714;9.584;2022-08-04T07:40:00;5.60;;;2.77;;
21615;SDS011;10970;48.714;9.584;2022-08-04T07:42:26;2.23;;;2.03;;
21615;SDS011;10970;48.714;9.584;2022-08-04T07:44:52;2.60;;;2.17;;
21615;SDS011;10970;48.714;9.584;2022-08-04T07:47:18;1.83;;;1.67;;
21615;SDS011;10970;48.714;9.584;2022-08-04T07:49:44;2.63;;;2.43;;
21615;SDS011;10970;48.714;9.584;2022-08-04T07:52:11;2.23;;;2.03;;
21615;SDS011;10970;48.714;9.584;2022-08-04T07:54:37;3.80;;;2.80;;
21615;SDS011;10970;48.714;9.584;2022-08-04T07:57:03;2.10;;;1.90;;
21615;SDS011;10970;48.714;9.584;2022-08-04T07:59:29;3.43;;;1.97;;
21615;SDS011;10970;48.714;9.584;2022-08-04T08:01:59;3.83;;;2.20;;
21615;SDS011;10970;48.714;9.584;2022-08-04T08:04:26;2.63;;;1.90;;
21615;SDS011;10970;48.714;9.584;2022-08-04T08:06:53;5.73;;;2.50;;
21615;SDS011;10970;48.714;9.584;2022-08-04T08:09:21;2.90;;;2.00;;
21615;SDS011;10970;48.714;9.584;2022-08-04T08:11:48;4.60;;;2.07;;
21615;SDS011;10970;48.714;9.584;2022-08-04T08:14:16;2.20;;;2.00;;
21615;SDS011;10970;48.714;9.584;2022-08-04T08:16:43;3.17;;;1.90;;
21615;SDS011;10970;48.714;9.584;2022-08-04T08:19:09;2.10;;;1.73;;
21615;SDS011;10970;48.714;9.584;2022-08-04T08:21:35;2.60;;;2.03;;
21615;SDS011;10970;48.714;9.584;2022-08-04T08:24:01;2.70;;;1.90;;
21615;SDS011;10970;48.714;9.584;2022-08-04T08:26:27;2.27;;;2.10;;
21615;SDS011;10970;48.714;9.584;2022-08-04T08:28:54;3.20;;;2.23;;
21615;SDS011;10970;48.714;9.584;2022-08-04T08:31:20;5.50;;;2.20;;
21615;SDS011;10970;48.714;9.584;2022-08-04T08:33:46;1.43;;;1.33;;
21615;SDS011;10970;48.714;9.584;2022-08-04T08:39:02;1.70;;;1.60;;
21615;SDS011;10970;48.714;9.584;2022-08-04T08:52:51;2.40;;;1.53;;
21615;SDS011;10970;48.714;9.584;2022-08-04T09:07:21;1.90;;;1.70;;
21615;SDS011;10970;48.714;9.584;2022-08-04T09:09:53;4.03;;;2.03;;
21615;SDS011;10970;48.714;9.584;2022-08-04T09:12:22;2.20;;;1.60;;
21615;SDS011;10970;48.714;9.584;2022-08-04T09:20:39;1.73;;;1.63;;
21615;SDS011;10970;48.714;9.584;2022-08-04T09:25:38;1.50;;;1.40;;
21615;SDS011;10970;48.714;9.584;2022-08-04T09:28:26;1.57;;;1.47;;
21615;SDS011;10970;48.714;9.584;2022-08-04T09:31:02;1.60;;;1.50;;
21615;SDS011;10970;48.714;9.584;2022-08-04T09:36:40;1.40;;;1.30;;
21615;SDS011;10970;48.714;9.584;2022-08-04T09:39:21;2.23;;;1.60;;
21615;SDS011;10970;48.714;9.584;2022-08-04T09:50:14;1.40;;;1.30;;
21615;SDS011;10970;48.714;9.584;2022-08-04T09:57:48;1.80;;;1.50;;
21615;SDS011;10970;48.714;9.584;2022-08-04T10:00:16;2.83;;;1.67;;
21615;SDS011;10970;48.714;9.584;2022-08-04T10:02:51;1.40;;;1.30;;
21615;SDS011;10970;48.714;9.584;2022-08-04T10:05:20;1.90;;;1.80;;
21615;SDS011;10970;48.714;9.584;2022-08-04T10:13:38;1.70;;;1.60;;
21615;SDS011;10970;48.714;9.584;2022-08-04T10:21:41;1.53;;;1.43;;
21615;SDS011;10970;48.714;9.584;2022-08-04T10:24:18;3.90;;;1.60;;
21615;SDS011;10970;48.714;9.584;2022-08-04T10:29:45;1.70;;;1.60;;
21615;SDS011;10970;48.714;9.584;2022-08-04T10:32:28;1.57;;;1.47;;
21615;SDS011;10970;48.714;9.584;2022-08-04T10:37:47;1.90;;;1.77;;
21615;SDS011;10970;48.714;9.584;2022-08-04T10:40:30;1.40;;;1.30;;
21615;SDS011;10970;48.714;9.584;2022-08-04T10:51:05;2.47;;;2.00;;
21615;SDS011;10970;48.714;9.584;2022-08-04T10:53:35;2.13;;;1.60;;
21615;SDS011;10970;48.714;9.584;2022-08-04T10:56:05;1.60;;;1.50;;
21615;SDS011;10970;48.714;9.584;2022-08-04T10:58:46;2.00;;;1.90;;
21615;SDS011;10970;48.714;9.584;2022-08-04T11:01:28;1.40;;;1.30;;
21615;SDS011;10970;48.714;9.584;2022-08-04T11:04:28;1.80;;;1.70;;
21615;SDS011;10970;48.714;9.584;2022-08-04T11:07:15;2.57;;;1.70;;
21615;SDS011;10970;48.714;9.584;2022-08-04T11:09:43;4.07;;;1.90;;
21615;SDS011;10970;48.714;9.584;2022-08-04T11:12:13;1.63;;;1.53;;
21615;SDS011;10970;48.714;9.584;2022-08-04T11:17:31;1.60;;;1.50;;
21615;SDS011;10970;48.714;9.584;2022-08-04T11:20:16;2.23;;;2.03;;
21615;SDS011;10970;48.714;9.584;2022-08-04T11:22:57;1.73;;;1.63;;
21615;SDS011;10970;48.714;9.584;2022-08-04T11:25:28;2.00;;;1.87;;
21615;SDS011;10970;48.714;9.584;2022-08-04T11:28:08;1.70;;;1.60;;
21615;SDS011;10970;48.714;9.584;2022-08-04T11:30:50;1.73;;;1.63;;
21615;SDS011;10970;48.714;9.584;2022-08-04T11:39:02;1.77;;;1.67;;
21615;SDS011;10970;48.714;9.584;2022-08-04T11:41:47;1.70;;;1.40;;
21615;SDS011;10970;48.714;9.584;2022-08-04T11:44:18;1.57;;;1.37;;
21615;SDS011;10970;48.714;9.584;2022-08-04T11:46:51;1.53;;;1.43;;
21615;SDS011;10970;48.714;9.584;2022-08-04T11:49:32;1.50;;;1.40;;
21615;SDS011;10970;48.714;9.584;2022-08-04T11:51:59;1.87;;;1.50;;
21615;SDS011;10970;48.714;9.584;2022-08-04T11:54:26;1.63;;;1.53;;
21615;SDS011;10970;48.714;9.584;2022-08-04T11:56:53;2.47;;;1.30;;
21615;SDS011;10970;48.714;9.584;2022-08-04T11:59:20;1.33;;;1.23;;
21615;SDS011;10970;48.714;9.584;2022-08-04T12:07:22;4.30;;;1.20;;
21615;SDS011;10970;48.714;9.584;2022-08-04T12:15:22;1.30;;;1.20;;
21615;SDS011;10970;48.714;9.584;2022-08-04T12:18:00;4.13;;;1.50;;
21615;SDS011;10970;48.714;9.584;2022-08-04T12:21:11;1.70;;;1.33;;
21615;SDS011;10970;48.714;9.584;2022-08-04T12:23:42;1.60;;;1.50;;
21615;SDS011;10970;48.714;9.584;2022-08-04T12:26:22;3.00;;;1.47;;
21615;SDS011;10970;48.714;9.584;2022-08-04T12:28:54;2.07;;;1.83;;
21615;SDS011;10970;48.714;9.584;2022-08-04T12:34:22;1.93;;;1.83;;
21615;SDS011;10970;48.714;9.584;2022-08-04T12:37:03;1.63;;;1.53;;
21615;SDS011;10970;48.714;9.584;2022-08-04T12:39:38;1.60;;;1.50;;
21615;SDS011;10970;48.714;9.584;2022-08-04T12:44:38;1.60;;;1.50;;
21615;SDS011;10970;48.714;9.584;2022-08-04T12:47:07;2.43;;;1.50;;
21615;SDS011;10970;48.714;9.584;2022-08-04T12:49:38;1.67;;;1.40;;
21615;SDS011;10970;48.714;9.584;2022-08-04T12:52:08;1.77;;;1.67;;
21615;SDS011;10970;48.714;9.584;2022-08-04T12:54:35;3.10;;;1.70;;
21615;SDS011;10970;48.714;9.584;2022-08-04T12:57:03;1.50;;;1.40;;
21615;SDS011;10970;48.714;9.584;2022-08-04T12:59:43;1.93;;;1.83;;
21615;SDS011;10970;48.714;9.584;2022-08-04T13:02:15;1.30;;;1.20;;
21615;SDS011;10970;48.714;9.584;2022-08-04T13:04:48;2.97;;;1.80;;
21615;SDS011;10970;48.714;9.584;2022-08-04T13:07:18;1.77;;;1.60;;
21615;SDS011;10970;48.714;9.584;2022-08-04T13:09:46;1.50;;;1.40;;
21615;SDS011;10970;48.714;9.584;2022-08-04T13:12:16;1.83;;;1.73;;
21615;SDS011;10970;48.714;9.584;2022-08-04T13:14:59;1.30;;;1.20;;
21615;SDS011;10970;48.714;9.584;2022-08-04T13:18:25;1.83;;;1.73;;
21615;SDS011;10970;48.714;9.584;2022-08-04T13:20:34;3.10;;;1.47;;
21615;SDS011;10970;48.714;9.584;2022-08-04T13:23:14;1.27;;;1.17;;
21615;SDS011;10970;48.714;9.584;2022-08-04T13:25:45;1.67;;;1.57;;
21615;SDS011;10970;48.714;9.584;2022-08-04T13:28:20;1.80;;;1.40;;
21615;SDS011;10970;48.714;9.584;2022-08-04T13:30:52;1.60;;;1.43;;
21615;SDS011;10970;48.714;9.584;2022-08-04T13:33:19;1.60;;;1.50;;
21615;SDS011;10970;48.714;9.584;2022-08-04T13:35:46;1.90;;;1.80;;
21615;SDS011;10970;48.714;9.584;2022-08-04T13:38:13;4.27;;;2.10;;
21615;SDS011;10970;48.714;9.584;2022-08-04T13:40:41;1.93;;;1.60;;
21615;SDS011;10970;48.714;9.584;2022-08-04T13:43:09;1.40;;;1.30;;
21615;SDS011;10970;48.714;9.584;2022-08-04T13:45:46;1.63;;;1.50;;
21615;SDS011;10970;48.714;9.584;2022-08-04T13:48:13;1.73;;;1.63;;
21615;SDS011;10970;48.714;9.584;2022-08-04T13:50:43;2.70;;;1.70;;
21615;SDS011;10970;48.714;9.584;2022-08-04T13:53:11;2.80;;;1.93;;
21615;SDS011;10970;48.714;9.584;2022-08-04T13:55:37;2.07;;;1.97;;
21615;SDS011;10970;48.714;9.584;2022-08-04T13:58:07;1.70;;;1.60;;
21615;SDS011;10970;48.714;9.584;2022-08-04T14:00:50;4.87;;;2.40;;
21615;SDS011;10970;48.714;9.584;2022-08-04T14:03:29;1.83;;;1.73;;
21615;SDS011;10970;48.714;9.584;2022-08-04T14:11:30;1.73;;;1.63;;
21615;SDS011;10970;48.714;9.584;2022-08-04T14:14:12;1.80;;;1.70;;
21615;SDS011;10970;48.714;9.584;2022-08-04T14:16:53;1.53;;;1.43;;
21615;SDS011;10970;48.714;9.584;2022-08-04T14:19:19;2.00;;;1.90;;
21615;SDS011;10970;48.714;9.584;2022-08-04T14:21:45;4.23;;;1.73;;
21615;SDS011;10970;48.714;9.584;2022-08-04T14:24:12;2.60;;;2.40;;
21615;SDS011;10970;48.714;9.584;2022-08-04T14:26:50;2.63;;;2.20;;
21615;SDS011;10970;48.714;9.584;2022-08-04T14:29:17;1.90;;;1.80;;
21615;SDS011;10970;48.714;9.584;2022-08-04T14:31:47;1.60;;;1.50;;
21615;SDS011;10970;48.714;9.584;2022-08-04T14:34:27;1.73;;;1.63;;
21615;SDS011;10970;48.714;9.584;2022-08-04T14:36:54;2.20;;;2.00;;
21615;SDS011;10970;48.714;9.584;2022-08-04T14:42:03;2.73;;;1.80;;
21615;SDS011;10970;48.714;9.584;2022-08-04T14:44:29;1.80;;;1.70;;
21615;SDS011;10970;48.714;9.584;2022-08-04T14:46:55;2.10;;;2.00;;
21615;SDS011;10970;48.714;9.584;2022-08-04T14:49:23;2.57;;;1.90;;
21615;SDS011;10970;48.714;9.584;2022-08-04T14:51:53;1.37;;;1.27;;
21615;SDS011;10970;48.714;9.584;2022-08-04T14:54:30;1.80;;;1.70;;
21615;SDS011;10970;48.714;9.584;2022-08-04T14:57:01;3.43;;;1.70;;
21615;SDS011;10970;48.714;9.584;2022-08-04T14:59:42;1.80;;;1.70;;
21615;SDS011;10970;48.714;9.584;2022-08-04T15:02:09;2.17;;;1.97;;
21615;SDS011;10970;48.714;9.584;2022-08-04T15:04:37;2.13;;;1.93;;
21615;SDS011;10970;48.714;9.584;2022-08-04T15:07:04;1.90;;;1.80;;
21615;SDS011;10970;48.714;9.584;2022-08-04T15:09:32;1.73;;;1.63;;
21615;SDS011;10970;48.714;9.584;2022-08-04T15:11:58;1.60;;;1.50;;
21615;SDS011;10970;48.714;9.584;2022-08-04T15:14:24;1.70;;;1.60;;
21615;SDS011;10970;48.714;9.584;2022-08-04T15:16:51;2.80;;;1.87;;
21615;SDS011;10970;48.714;9.584;2022-08-04T15:19:17;2.00;;;1.90;;
21615;SDS011;10970;48.714;9.584;2022-08-04T15:21:43;2.10;;;2.00;;
21615;SDS011;10970;48.714;9.584;2022-08-04T15:24:09;1.83;;;1.70;;
21615;SDS011;10970;48.714;9.584;2022-08-04T15:29:27;2.30;;;2.10;;
21615;SDS011;10970;48.714;9.584;2022-08-04T15:32:10;2.00;;;1.87;;
21615;SDS011;10970;48.714;9.584;2022-08-04T15:34:49;1.90;;;1.77;;
21615;SDS011;10970;48.714;9.584;2022-08-04T15:37:27;1.87;;;1.73;;
21615;SDS011;10970;48.714;9.584;2022-08-04T15:40:26;1.87;;;1.77;;
21615;SDS011;10970;48.714;9.584;2022-08-04T15:46:20;2.53;;;2.20;;
21615;SDS011;10970;48.714;9.584;2022-08-04T15:49:24;1.90;;;1.80;;
21615;SDS011;10970;48.714;9.584;2022-08-04T15:52:02;1.93;;;1.83;;
21615;SDS011;10970;48.714;9.584;2022-08-04T15:54:28;1.77;;;1.67;;
21615;SDS011;10970;48.714;9.584;2022-08-04T15:56:55;2.40;;;1.90;;
21615;SDS011;10970;48.714;9.584;2022-08-04T16:13:02;2.70;;;1.97;;
21615;SDS011;10970;48.714;9.584;2022-08-04T16:15:42;1.70;;;1.60;;
21615;SDS011;10970;48.714;9.584;2022-08-04T16:20:56;2.00;;;1.90;;
21615;SDS011;10970;48.714;9.584;2022-08-04T16:25:51;2.57;;;2.07;;
21615;SDS011;10970;48.714;9.584;2022-08-04T16:31:04;1.80;;;1.60;;
21615;SDS011;10970;48.714;9.584;2022-08-04T16:33:31;2.50;;;1.67;;
21615;SDS011;10970;48.714;9.584;2022-08-04T16:35:58;2.90;;;2.10;;
21615;SDS011;10970;48.714;9.584;2022-08-04T16:38:25;1.93;;;1.83;;
21615;SDS011;10970;48.714;9.584;2022-08-04T16:40:58;1.80;;;1.70;;
21615;SDS011;10970;48.714;9.584;2022-08-04T16:43:29;2.17;;;2.07;;
21615;SDS011;10970;48.714;9.584;2022-08-04T16:45:58;3.37;;;2.20;;
21615;SDS011;10970;48.714;9.584;2022-08-04T16:48:29;2.67;;;2.47;;
21615;SDS011;10970;48.714;9.584;2022-08-04T16:51:03;2.50;;;2.30;;
21615;SDS011;10970;48.714;9.584;2022-08-04T16:56:08;2.10;;;2.00;;
21615;SDS011;10970;48.714;9.584;2022-08-04T16:58:35;2.43;;;1.80;;
21615;SDS011;10970;48.714;9.584;2022-08-04T17:01:08;2.30;;;1.73;;
21615;SDS011;10970;48.714;9.584;2022-08-04T17:03:39;1.90;;;1.80;;
21615;SDS011;10970;48.714;9.584;2022-08-04T17:06:11;2.13;;;1.93;;
21615;SDS011;10970;48.714;9.584;2022-08-04T17:08:42;2.27;;;2.17;;
21615;SDS011;10970;48.714;9.584;2022-08-04T17:11:09;1.80;;;1.70;;
21615;SDS011;10970;48.714;9.584;2022-08-04T17:13:37;2.60;;;2.40;;
21615;SDS011;10970;48.714;9.584;2022-08-04T17:16:03;2.00;;;1.80;;
21615;SDS011;10970;48.714;9.584;2022-08-04T17:18:42;2.07;;;1.87;;
21615;SDS011;10970;48.714;9.584;2022-08-04T17:21:20;5.33;;;1.50;;
21615;SDS011;10970;48.714;9.584;2022-08-04T17:23:52;2.20;;;2.10;;
21615;SDS011;10970;48.714;9.584;2022-08-04T17:28:47;2.23;;;1.90;;
21615;SDS011;10970;48.714;9.584;2022-08-04T17:31:14;2.10;;;2.00;;
21615;SDS011;10970;48.714;9.584;2022-08-04T17:33:44;2.87;;;2.40;;
21615;SDS011;10970;48.714;9.584;2022-08-04T17:36:11;2.13;;;2.03;;
21615;SDS011;10970;48.714;9.584;2022-08-04T17:38:42;2.00;;;1.90;;
21615;SDS011;10970;48.714;9.584;2022-08-04T17:41:14;2.00;;;1.80;;
21615;SDS011;10970;48.714;9.584;2022-08-04T17:54:17;2.27;;;2.07;;
21615;SDS011;10970;48.714;9.584;2022-08-04T17:56:45;2.60;;;2.40;;
21615;SDS011;10970;48.714;9.584;2022-08-04T17:59:27;3.43;;;2.53;;
21615;SDS011;10970;48.714;9.584;2022-08-04T18:02:07;4.00;;;2.27;;
21615;SDS011;10970;48.714;9.584;2022-08-04T18:04:33;3.60;;;2.60;;
21615;SDS011;10970;48.714;9.584;2022-08-04T18:10:02;2.43;;;2.23;;
21615;SDS011;10970;48.714;9.584;2022-08-04T18:12:35;2.60;;;2.40;;
21615;SDS011;10970;48.714;9.584;2022-08-04T18:15:03;3.33;;;3.03;;
21615;SDS011;10970;48.714;9.584;2022-08-04T18:20:13;2.57;;;2.37;;
21615;SDS011;10970;48.714;9.584;2022-08-04T18:22:42;2.70;;;2.50;;
21615;SDS011;10970;48.714;9.584;2022-08-04T18:25:09;5.30;;;2.73;;
21615;SDS011;10970;48.714;9.584;2022-08-04T18:27:45;2.50;;;2.30;;
21615;SDS011;10970;48.714;9.584;2022-08-04T18:30:18;4.03;;;3.00;;
21615;SDS011;10970;48.714;9.584;2022-08-04T18:32:47;2.40;;;2.30;;
21615;SDS011;10970;48.714;9.584;2022-08-04T18:35:13;2.40;;;2.20;;
21615;SDS011;10970;48.714;9.584;2022-08-04T18:37:40;2.90;;;2.70;;
21615;SDS011;10970;48.714;9.584;2022-08-04T18:40:07;3.13;;;2.93;;
21615;SDS011;10970;48.714;9.584;2022-08-04T18:42:34;4.07;;;2.90;;
21615;SDS011;10970;48.714;9.584;2022-08-04T18:45:00;2.53;;;2.30;;
21615;SDS011;10970;48.714;9.584;2022-08-04T18:47:27;3.50;;;3.20;;
21615;SDS011;10970;48.714;9.584;2022-08-04T18:49:53;3.13;;;2.87;;
21615;SDS011;10970;48.714;9.584;2022-08-04T18:52:19;3.30;;;3.00;;
21615;SDS011;10970;48.714;9.584;2022-08-04T18:54:45;3.20;;;3.00;;
21615;SDS011;10970;48.714;9.584;2022-08-04T18:57:11;4.00;;;3.30;;
21615;SDS011;10970;48.714;9.584;2022-08-04T18:59:45;4.40;;;4.00;;
21615;SDS011;10970;48.714;9.584;2022-08-04T19:02:12;3.27;;;3.07;;
21615;SDS011;10970;48.714;9.584;2022-08-04T19:04:38;4.07;;;2.57;;
21615;SDS011;10970;48.714;9.584;2022-08-04T19:07:05;4.07;;;3.70;;
21615;SDS011;10970;48.714;9.584;2022-08-04T19:09:31;5.43;;;4.90;;
21615;SDS011;10970;48.714;9.584;2022-08-04T19:11:57;4.40;;;4.07;;
21615;SDS011;10970;48.714;9.584;2022-08-04T19:14:23;4.83;;;3.93;;
21615;SDS011;10970;48.714;9.584;2022-08-04T19:16:49;3.73;;;3.43;;
21615;SDS011;10970;48.714;9.584;2022-08-04T19:19:15;4.57;;;4.17;;
21615;SDS011;10970;48.714;9.584;2022-08-04T19:21:42;6.60;;;4.37;;
21615;SDS011;10970;48.714;9.584;2022-08-04T19:24:08;3.70;;;3.40;;
21615;SDS011;10970;48.714;9.584;2022-08-04T19:26:36;5.67;;;4.07;;
21615;SDS011;10970;48.714;9.584;2022-08-04T19:29:03;3.27;;;2.97;;
21615;SDS011;10970;48.714;9.584;2022-08-04T19:31:29;3.27;;;2.90;;
21615;SDS011;10970;48.714;9.584;2022-08-04T19:33:55;3.30;;;3.10;;
21615;SDS011;10970;48.714;9.584;2022-08-04T19:36:21;3.87;;;3.50;;
21615;SDS011;10970;48.714;9.584;2022-08-04T19:38:48;3.93;;;3.17;;
21615;SDS011;10970;48.714;9.584;2022-08-04T19:41:13;3.03;;;2.83;;
21615;SDS011;10970;48.714;9.584;2022-08-04T19:43:39;4.30;;;3.40;;
21615;SDS011;10970;48.714;9.584;2022-08-04T19:46:05;4.23;;;3.33;;
21615;SDS011;10970;48.714;9.584;2022-08-04T19:48:31;6.77;;;6.17;;
21615;SDS011;10970;48.714;9.584;2022-08-04T19:50:57;7.77;;;7.07;;
21615;SDS011;10970;48.714;9.584;2022-08-04T19:53:23;10.77;;;9.20;;
21615;SDS011;10970;48.714;9.584;2022-08-04T19:55:49;7.83;;;7.13;;
21615;SDS011;10970;48.714;9.584;2022-08-04T19:58:14;8.00;;;7.23;;
21615;SDS011;10970;48.714;9.584;2022-08-04T20:00:40;6.20;;;5.63;;
21615;SDS011;10970;48.714;9.584;2022-08-04T20:03:06;6.63;;;6.03;;
21615;SDS011;10970;48.714;9.584;2022-08-04T20:05:33;4.43;;;4.03;;
21615;SDS011;10970;48.714;9.584;2022-08-04T20:07:59;4.20;;;3.80;;
21615;SDS011;10970;48.714;9.584;2022-08-04T20:10:25;3.97;;;3.67;;
21615;SDS011;10970;48.714;9.584;2022-08-04T20:12:52;5.00;;;3.20;;
21615;SDS011;10970;48.714;9.584;2022-08-04T20:15:17;3.97;;;3.67;;
21615;SDS011;10970;48.714;9.584;2022-08-04T20:17:43;5.23;;;4.47;;
21615;SDS011;10970;48.714;9.584;2022-08-04T20:20:10;4.33;;;3.93;;
21615;SDS011;10970;48.714;9.584;2022-08-04T20:22:36;3.47;;;3.23;;
21615;SDS011;10970;48.714;9.584;2022-08-04T20:25:02;3.50;;;3.20;;